createdAt,value
2022-11-03T16:28:10.582Z,10.40
2022-11-03T16:30:41.041Z,10.40
2022-11-03T16:33:10.867Z,10.50
2022-11-03T16:35:40.749Z,10.50
2022-11-03T16:38:10.805Z,10.50
2022-11-03T16:40:40.684Z,10.50
2022-11-03T16:43:13.619Z,10.50
2022-11-03T16:45:43.420Z,10.50
2022-11-03T16:48:13.290Z,10.50
2022-11-03T16:50:44.960Z,10.50
2022-11-03T16:53:14.966Z,10.50
2022-11-03T16:55:46.230Z,10.50
2022-11-03T16:58:18.853Z,10.50
2022-11-03T17:00:48.694Z,10.50
2022-11-03T17:03:18.607Z,10.50
2022-11-03T17:05:48.434Z,10.50
2022-11-03T17:08:46.860Z,10.50
2022-11-03T17:11:08.637Z,10.50
2022-11-03T17:13:41.060Z,10.50
2022-11-03T17:16:11.087Z,10.40
2022-11-03T17:18:40.916Z,10.50
2022-11-03T17:21:10.733Z,10.40
2022-11-03T17:23:40.559Z,10.40
2022-11-03T17:26:11.600Z,10.40
2022-11-03T17:28:44.526Z,10.40
2022-11-03T17:31:14.551Z,10.30
2022-11-03T17:33:44.391Z,10.30
2022-11-03T17:36:14.235Z,10.30
2022-11-03T17:38:44.114Z,10.30
2022-11-03T17:41:17.980Z,10.30
2022-11-03T17:43:51.677Z,10.30
2022-11-03T17:46:21.534Z,10.30
2022-11-03T17:48:51.335Z,10.20
2022-11-03T17:51:21.300Z,10.30
2022-11-03T17:53:51.144Z,10.20
2022-11-03T17:56:30.193Z,10.20
2022-11-03T17:59:03.341Z,10.20
2022-11-03T18:01:33.830Z,10.20
2022-11-03T18:04:05.241Z,10.20
2022-11-03T18:06:35.146Z,10.10
2022-11-03T18:09:05.499Z,10.10
2022-11-03T18:11:48.843Z,10.10
2022-11-03T18:14:22.308Z,10.10
2022-11-03T18:16:54.113Z,10.10
2022-11-03T18:19:24.500Z,10.10
2022-11-03T18:21:54.432Z,10.10
2022-11-03T18:24:24.467Z,10.10
2022-11-03T18:26:54.304Z,10.10
2022-11-03T18:29:26.693Z,10.10
2022-11-03T18:31:57.155Z,10.10
2022-11-03T18:34:28.920Z,10.10
2022-11-03T18:36:58.791Z,10.10
2022-11-03T18:39:30.760Z,10.00
2022-11-03T18:42:00.818Z,10.00
2022-11-03T18:44:34.214Z,10.00
2022-11-03T18:47:04.036Z,10.00
2022-11-03T18:49:34.013Z,10.00
2022-11-03T18:52:06.564Z,10.00
2022-11-03T18:54:38.114Z,10.00
2022-11-03T18:57:07.951Z,10.00
2022-11-03T18:59:43.738Z,9.90
2022-11-03T19:02:20.634Z,10.00
2022-11-03T19:04:51.719Z,10.00
2022-11-03T19:07:28.774Z,10.10
2022-11-03T19:09:58.770Z,10.10
2022-11-03T19:12:28.674Z,10.10
2022-11-03T19:15:01.160Z,10.10
2022-11-03T19:17:36.529Z,10.10
2022-11-03T19:20:15.484Z,10.10
2022-11-03T19:22:45.551Z,10.10
2022-11-03T19:25:18.766Z,10.10
2022-11-03T19:27:50.682Z,10.10
2022-11-03T19:30:23.359Z,10.10
2022-11-03T19:32:56.809Z,10.10
2022-11-03T19:35:32.785Z,10.20
2022-11-03T19:38:07.352Z,10.10
2022-11-03T19:40:37.505Z,10.10
2022-11-03T19:43:08.772Z,10.10
2022-11-03T19:45:42.255Z,10.10
2022-11-03T19:48:29.397Z,10.10
2022-11-03T19:50:59.667Z,10.10
2022-11-03T19:53:33.231Z,10.10
2022-11-03T19:56:03.320Z,10.10
2022-11-03T19:58:33.171Z,10.10
2022-11-03T20:01:08.826Z,10.10
2022-11-03T20:03:39.473Z,10.10
2022-11-03T20:06:12.158Z,10.10
2022-11-03T20:08:45.245Z,10.10
2022-11-03T20:11:15.262Z,10.00
2022-11-03T20:13:46.539Z,10.00
2022-11-03T20:16:20.183Z,10.00
2022-11-03T20:18:51.091Z,9.90
2022-11-03T20:21:22.935Z,10.00
2022-11-03T20:23:54.741Z,9.90
2022-11-03T20:26:26.649Z,9.90
2022-11-03T20:28:57.667Z,9.90
2022-11-03T20:31:30.364Z,9.80
2022-11-03T20:34:00.207Z,9.90
2022-11-03T20:36:30.176Z,9.80
2022-11-03T20:39:01.240Z,9.80
2022-11-03T20:41:32.995Z,9.80
2022-11-03T20:44:02.923Z,9.70
2022-11-03T20:46:36.612Z,9.60
2022-11-03T20:49:06.685Z,9.60
2022-11-03T20:51:39.168Z,9.60
2022-11-03T20:54:18.312Z,9.60
2022-11-03T20:56:48.331Z,9.60
2022-11-03T20:59:23.146Z,9.50
2022-11-03T21:01:56.754Z,9.50
2022-11-03T21:04:28.097Z,9.40
2022-11-03T21:06:57.947Z,9.30
2022-11-03T21:09:27.763Z,9.30
2022-11-03T21:11:57.723Z,9.30
2022-11-03T21:14:29.823Z,9.20
2022-11-03T21:17:20.450Z,9.20
2022-11-03T21:20:07.882Z,9.10
2022-11-03T21:22:55.411Z,9.00
2022-11-03T21:25:26.684Z,9.00
2022-11-03T21:27:57.065Z,9.00
2022-11-03T21:30:26.870Z,8.90
2022-11-03T21:32:59.271Z,8.80
2022-11-03T21:35:29.356Z,8.80
2022-11-03T21:37:59.187Z,8.80
2022-11-03T21:40:29.047Z,8.70
2022-11-03T21:43:11.669Z,8.70
2022-11-03T21:45:44.334Z,8.60
2022-11-03T21:48:29.298Z,8.60
2022-11-03T21:51:04.164Z,8.50
2022-11-03T21:53:34.426Z,8.50
2022-11-03T21:56:04.260Z,8.50
2022-11-03T21:58:35.553Z,8.50
2022-11-03T22:01:06.879Z,8.50
2022-11-03T22:03:41.534Z,8.50
2022-11-03T22:06:12.863Z,8.60
2022-11-03T22:08:42.679Z,8.60
2022-11-03T22:11:24.750Z,8.70
2022-11-03T22:13:58.528Z,8.60
2022-11-03T22:16:40.767Z,8.60
2022-11-03T22:19:29.727Z,8.60
2022-11-03T22:22:12.846Z,8.70
2022-11-03T22:24:56.040Z,8.70
2022-11-03T22:27:26.896Z,8.70
2022-11-03T22:30:09.593Z,8.70
2022-11-03T22:32:40.131Z,8.70
2022-11-03T22:35:26.708Z,8.80
2022-11-03T22:38:08.931Z,8.80
2022-11-03T22:41:01.417Z,8.80
2022-11-03T22:43:44.074Z,8.80
2022-11-03T22:46:15.898Z,8.80
2022-11-03T22:48:46.175Z,8.80
2022-11-03T22:51:19.422Z,8.80
2022-11-03T22:54:01.851Z,8.80
2022-11-03T22:56:33.284Z,8.80
2022-11-03T22:59:03.534Z,8.70
2022-11-03T23:01:33.720Z,8.70
2022-11-03T23:04:04.073Z,8.70
2022-11-03T23:06:40.511Z,8.70
2022-11-03T23:09:12.128Z,8.70
2022-11-03T23:11:42.205Z,8.60
2022-11-03T23:14:14.012Z,8.60
2022-11-03T23:16:46.500Z,8.60
2022-11-03T23:19:31.047Z,8.50
2022-11-03T23:22:03.716Z,8.50
2022-11-03T23:24:46.116Z,8.50
2022-11-03T23:27:16.714Z,8.50
2022-11-03T23:29:46.599Z,8.50
2022-11-03T23:32:16.548Z,8.50
2022-11-03T23:34:46.598Z,8.40
2022-11-03T23:37:19.046Z,8.40
2022-11-03T23:39:48.869Z,8.50
2022-11-03T23:42:18.691Z,8.40
2022-11-03T23:45:01.019Z,8.50
2022-11-03T23:47:43.346Z,8.40
2022-11-03T23:50:13.182Z,8.40
2022-11-03T23:52:45.590Z,8.50
2022-11-03T23:55:15.451Z,8.40
2022-11-03T23:57:57.794Z,8.40
